Terminal Aerodrome Forecast
Issued by NWS

Home | Current Version | Previous Version | Text Only | Print | Product List | Glossary On
Versions: 1 2 3 4 5 6 7 8 9 10 11 12 13 14 15 16 17
000
FTUS42 KTBW 292346
TAFRSW
TAF
KRSW 292346Z 3000/3024 06008KT 6SM FU SCT100
     FM300300 08004KT 6SM FU SCT250
     FM301400 11007KT 6SM FU FEW030 SCT250
     FM301800 VRB06KT P6SM VCTS BKN050CB BKN250=

USA.gov is the U.S. government's official web portal to all federal, state and local government web resources and services.